x

9419750 - Crescent City, Ca (cecc1) Weather Station

2:54pm - Tue 24th Jan 2017 All times are PST. -8 hours from GMT.

  • Wind
    2mph, 3mph gusts
  • Sea Temp 51°f
  • Air Temp 48°f
  • Sea Pressure 1020.6mb
  • 9419750 - Crescent City, Ca
  • 9419750 - Crescent City, Ca

More Historic Weather Station data

Upgrade to MSW Pro to gain access to the past 30 days of data for over 8000 Wavebouys and Weather Stations around the globe.

Join Pro

Comparision Forecast

View Surf forecast
   
Tue 01/24 2:54pm 2 3 mph 1020.6mb 51f 48f
2:42pm 5 6 mph 1020.7mb 51f 48f
2:30pm 5 6 mph 1020.6mb 51f 47f
2:24pm 5 6 mph 1020.6mb 51f 47f
2:18pm 5 6 mph 1020.6mb 51f 47f
2:12pm 2 3 mph 1020.5mb 51f 48f
2:06pm 3 5 mph 1020.5mb 51f 48f
2:00pm 2 5 mph 1020.5mb 51f 48f
1:54pm 2 3 mph 1020.5mb 51f 48f
1:48pm 3
mph
1020.6mb 51f 48f
1:42pm 2 5 mph 1020.6mb 51f 48f
1:36pm 2 5 mph 1020.6mb 51f 48f
1:30pm 2 5 mph 1020.6mb 51f 48f
1:24pm 5 7 mph 1020.6mb 51f 47f
1:18pm 6 7 mph 1020.7mb 51f 47f
1:12pm 6 7 mph 1020.8mb 51f 47f
1:06pm 6 7 mph 1020.7mb 51f 47f
12:54pm 6 7 mph 1020.8mb 51f 47f
12:48pm 5 6 mph 1020.7mb 51f -
12:42pm 3 5 mph 1020.7mb 51f 47f
12:36pm 3 6 mph 1020.7mb 51f 47f
12:30pm 3 6 mph 1020.7mb 51f 47f
12:24pm 5 7 mph 1020.6mb 51f 47f
12:18pm 5 6 mph 1020.7mb - -
12:12pm 5 6 mph 1020.7mb 51f 47f
12:06pm 3 6 mph 1020.7mb 51f 47f
12:00pm 5 6 mph 1020.7mb 51f 47f
11:54am 3 6 mph 1020.7mb 51f 47f
11:48am 6
mph
1020.7mb 51f 46f
11:36am 7
mph
1020.7mb 51f 46f
11:30am 6 7 mph 1020.8mb 51f 46f
11:24am 6
mph
1020.8mb 51f 47f
11:18am 3 6 mph 1020.8mb - -
11:12am 3 6 mph 1020.8mb 51f 47f
11:06am 3 5 mph 1020.8mb 51f 47f
Mon 01/23 1:48pm 18 22 mph 1005.8mb 50f -
1:42pm 15 22 mph 1005.9mb 50f 50f
1:36pm 17 21 mph 1005.9mb 50f 49f
1:24pm 21 24 mph 1005.9mb 50f 49f
1:18pm 18 21 mph 1005.9mb 50f -
1:12pm 17 22 mph 1005.9mb 50f 49f
1:06pm 20 23 mph 1005.9mb 50f 49f
1:00pm 16 22 mph 1005.9mb 50f 49f
12:54pm 20 24 mph 1006mb 50f 49f
12:48pm 22 24 mph 1006mb 50f -
12:42pm 21 23 mph 1006.1mb 50f 49f
12:30pm 21 25 mph 1006.1mb 50f 49f
12:24pm 21 25 mph 1006.1mb 50f 49f
12:18pm 20 25 mph 1006.1mb 50f -
12:12pm 20 28 mph 1006.1mb 50f 49f
12:06pm 20 28 mph 1006.2mb 50f 48f
12:00pm 22 28 mph 1006.3mb 50f 48f
11:54am 23 26 mph 1006.3mb 50f 48f
11:48am 23 29 mph 1006.3mb 50f -
11:42am 22 28 mph 1006.4mb 50f 48f
11:36am 23 29 mph 1006.3mb 51f 48f
11:30am 22 29 mph 1006.4mb 51f 48f
11:24am 23 29 mph 1006.5mb 50f 48f
11:18am 22 30 mph - - -
11:12am 23 29 mph 1006.6mb 51f 47f
11:06am 25 31 mph 1006.6mb 51f 47f
11:00am 21 26 mph 1006.7mb 51f 47f
10:54am 23 31 mph 1006.7mb 51f 47f
10:48am 25 30 mph 1006.7mb 51f -
10:42am 23 29 mph 1006.7mb 51f 47f
10:36am 24 28 mph 1006.7mb 51f 47f
10:30am 20 26 mph 1006.8mb 51f 47f
10:24am 21 25 mph 1006.7mb 51f 47f
10:18am 18 22 mph 1006.6mb - -
10:12am 15 21 mph 1006.6mb 51f 47f
10:06am 17 23 mph 1006.6mb 51f 47f
10:00am 20 23 mph 1006.6mb 51f 46f
9:54am 18 23 mph 1006.5mb 51f 46f
9:48am 22 24 mph 1006.5mb 51f -
9:42am 22 28 mph 1006.5mb 51f 46f
9:36am 21 28 mph 1006.5mb 51f 46f
9:30am 22 28 mph 1006.5mb 51f 46f
9:24am 23 30 mph 1006.4mb 51f 46f
9:18am 25 31 mph 1006.3mb 51f -
9:12am 24 30 mph 1006.3mb 51f 46f
9:06am 26 30 mph 1006.3mb 51f 46f
9:00am 22 30 mph 1006.3mb 51f 46f
8:54am 22 25 mph 1006.3mb 51f 46f
8:48am 17 21 mph 1006.3mb - -
8:42am 18 24 mph 1006.1mb 51f 46f
8:30am 22 26 mph 1006.1mb 51f 45f
8:24am 21 26 mph 1006mb 51f 46f
8:18am 20 22 mph 1006mb 51f 45f
8:06am 18 23 mph 1005.7mb 51f 46f
8:00am 20 26 mph 1005.7mb 51f 46f
7:54am 24 28 mph 1005.6mb 51f 45f
7:48am 23 29 mph 1005.6mb 51f 46f
7:36am 24 30 mph 1005.6mb 51f 45f
7:30am 24 30 mph 1005.4mb 51f 45f
7:24am 28 30 mph 1005.5mb 51f 45f
7:18am 23 31 mph - - -
7:12am 25 29 mph 1005.3mb 51f 46f
7:06am 24 29 mph 1005.3mb 51f 46f
7:00am 22 31 mph 1005.2mb 51f 46f
6:54am 26 32 mph 1005.1mb 51f 46f
6:48am 22 28 mph 1005.1mb 51f -
6:42am 23 29 mph 1005mb 51f 46f
6:30am 22 24 mph 1004.9mb 51f 46f
6:24am 18 26 mph 1004.8mb 51f 46f
6:18am 21 26 mph 1004.8mb - -
6:12am 17 21 mph 1004.8mb 51f 46f
6:00am 15 18 mph 1004.8mb 51f 45f
5:54am 18 25 mph 1004.7mb 51f 46f
5:48am 23 25 mph 1004.5mb 51f 46f
5:42am 18 24 mph 1004.5mb 51f 46f
5:36am 20 23 mph 1004.4mb 51f 46f
5:30am 17 24 mph 1004.4mb 51f 45f
5:24am 18 26 mph 1004.3mb 51f 46f
5:18am 21 25 mph 1004.3mb 51f -
5:12am 17 21 mph 1004.4mb 51f 45f
5:00am 14 16 mph 1004.3mb 51f 44f
4:54am 15 17 mph 1004.5mb 51f 45f
4:48am 15 18 mph 1004.6mb - -
4:42am 14 16 mph 1004.6mb 51f 44f
4:36am 14 16 mph 1004.6mb 51f 44f
4:30am 13 16 mph 1004.6mb 51f 44f
4:24am 13 16 mph 1004.6mb 51f 45f
4:18am 16 22 mph 1004.7mb 51f -
4:12am 21 26 mph 1004.5mb 50f 45f
4:06am 17 22 mph 1004.6mb 51f 45f
4:00am 17 22 mph 1004.6mb 51f 44f
3:54am 15 17 mph 1004.6mb 50f 44f
3:48am 17 22 mph 1004.5mb 51f 45f
3:42am 17 22 mph 1004.5mb 51f 44f
3:36am 22 26 mph 1004.3mb 51f 44f
3:30am 23 32 mph 1004.2mb 51f 44f
3:24am 26 32 mph 1004.2mb 51f 45f
3:18am 25 31 mph 1004.2mb - -
3:12am 24 32 mph 1004.1mb 51f 45f
3:06am 21 26 mph 1004.1mb 51f 46f
3:00am 20 26 mph 1004.2mb 51f 46f
2:54am 16 18 mph 1004.2mb 51f 46f
2:48am 14 17 mph 1004.1mb 51f -
2:42am 14 21 mph 1004mb 51f 45f
2:36am 14 18 mph 1004mb 51f 45f
2:30am 16 20 mph 1003.9mb 51f 45f
2:24am 16 21 mph 1003.8mb 51f 45f
2:18am 16 18 mph 1003.8mb 51f 45f
2:12am 14 16 mph 1003.7mb 51f 45f
2:06am 14 18 mph 1003.7mb 50f 44f
2:00am 15 20 mph 1003.7mb 50f 44f
1:54am 17 21 mph 1003.6mb 50f 45f
1:48am 20 25 mph 1003.5mb - -
1:42am 21 24 mph 1003.4mb 50f 45f
1:36am 22 25 mph 1003.3mb 50f 45f
1:30am 18 25 mph 1003.5mb 50f 45f
1:24am 18 22 mph 1003.4mb 50f 45f
1:18am 18 26 mph 1003.5mb 50f 44f
1:12am 23 26 mph 1003.3mb 50f 45f
1:06am 22 26 mph 1003.4mb 50f 45f
1:00am 24 28 mph 1003.3mb 50f 45f
12:54am 22 30 mph 1003.4mb 50f 45f
12:48am 25 32 mph 1003.5mb 50f -
12:42am 23 31 mph 1003.6mb 51f 45f
12:36am 21 31 mph 1003.7mb 50f 46f
12:30am 23 30 mph 1003.4mb 51f 46f
12:24am 20 25 mph 1003.3mb 51f 46f
12:18am 22 28 mph - - -
12:06am 14 20 mph 1003.5mb 51f 45f
12:00am 17 20 mph 1003.3mb 51f 45f
Sun 01/22 11:54pm 17 28 mph 1003.4mb 51f 45f
11:48pm 18 23 mph - - -
11:42pm 14 17 mph 1003.4mb 51f 44f
11:36pm 14 21 mph 1003.4mb 51f 45f
11:30pm 16 21 mph 1003.3mb 51f 45f
11:24pm 18 22 mph 1003.2mb 51f 45f
11:12pm 21 25 mph 1003.3mb 51f 44f
11:06pm 23 26 mph 1003.2mb 50f 44f
11:00pm 18 25 mph 1003.3mb 50f 44f
10:54pm 20 22 mph 1003.1mb 50f 44f
10:48pm 17 24 mph - - -
10:42pm 22 30 mph 1002.7mb 51f 45f
10:36pm 26 32 mph 1002.6mb 51f 45f
10:30pm 25 33 mph 1002.7mb 51f 46f
10:24pm 29 32 mph 1002.7mb 51f 46f
10:18pm 24 31 mph 1002.7mb 51f 47f
10:12pm 22 25 mph 1002.5mb 51f 47f
10:06pm 20 23 mph 1002.6mb 51f 47f
10:00pm 18 24 mph 1002.5mb 51f 47f
9:54pm 18 23 mph 1002.4mb 51f 47f
9:48pm 21 29 mph 1002.3mb 51f 47f
9:36pm 25 30 mph 1002.1mb - -
9:30pm 20 25 mph 1002.2mb 51f 47f
9:18pm 15 21 mph 1002.3mb - -
9:06pm 21 29 mph 1002.4mb 51f 46f
9:00pm 16 21 mph 1002.2mb 51f 47f
8:54pm 13 14 mph 1002.2mb 51f 46f
8:48pm 8 21 mph 1002.2mb - -
8:42pm 21 25 mph 1002.3mb 51f 46f
8:36pm 20 22 mph 1002mb 51f 46f
8:30pm 16 23 mph 1002.1mb 51f 46f
8:24pm 22 28 mph 1002mb 51f 46f
8:18pm 18 21 mph 1002mb 51f 46f
8:12pm 14 16 mph 1002.2mb 51f 45f
8:06pm 13 16 mph 1002.3mb 51f 44f
8:00pm 13 15 mph 1002.2mb 51f 44f
7:54pm 14 20 mph 1002.2mb 51f 44f
7:48pm 17 22 mph 1002.2mb 51f -
7:42pm 22 32 mph 1002.1mb 51f 44f
7:36pm 29 33 mph 1002mb 50f 44f
7:30pm 22 31 mph 1002.2mb 51f 45f
7:24pm 20 23 mph 1002.1mb 51f 45f
7:18pm 18 23 mph 1002mb 51f -
7:12pm 18 23 mph 1001.9mb 51f 45f
7:06pm 21 26 mph 1001.8mb 50f 45f
7:00pm 18 23 mph 1001.8mb 50f 45f
6:54pm 18 24 mph 1001.8mb 50f 45f
6:48pm 21 26 mph 1001.8mb 50f -
6:42pm 21 26 mph 1001.7mb 50f 45f
6:36pm 22 26 mph 1001.7mb 50f 45f
6:30pm 22 25 mph 1001.7mb 50f 44f
6:24pm 18 23 mph 1001.6mb 51f 45f
6:18pm 20 23 mph 1001.6mb 51f -
6:12pm 18 22 mph 1001.6mb 51f 44f
6:06pm 20 25 mph 1001.5mb 51f 44f
6:00pm 20 25 mph - 51f 44f
5:54pm 22 25 mph - 50f 44f
5:48pm 21 25 mph 1001.6mb 50f -
5:42pm 16 24 mph 1001.7mb 50f 44f
5:36pm 17 22 mph 1001.7mb 50f 44f
5:30pm 21 25 mph 1001.7mb 51f -
5:24pm 21 26 mph 1001.6mb 51f -
5:18pm 20 26 mph 1001.5mb 50f 44f
5:12pm 24 31 mph 1001.3mb 51f 44f
5:06pm 28 32 mph 1001.4mb 50f 44f
5:00pm 22 25 mph 1001.4mb 50f 44f
4:54pm 20 25 mph 1001.1mb 50f 44f
4:48pm 21 25 mph 1001.2mb 50f -
4:42pm 28 31 mph 1001.2mb 50f 44f
4:36pm 21 30 mph 1001.4mb 50f 44f
4:30pm 28 31 mph 1001.4mb 50f 44f
4:24pm 22 29 mph 1001.5mb 50f 43f
4:18pm 22 26 mph 1001.5mb 50f -
4:12pm 23 29 mph 1001.7mb 50f 43f
4:06pm 22 25 mph 1002.1mb 50f 43f
4:00pm 16 24 mph 1002.2mb 50f 43f
3:54pm 20 24 mph 1002.1mb 50f 43f
3:48pm 15 25 mph 1002.2mb 50f -
3:42pm 21 26 mph 1002mb 50f -
3:36pm 23 28 mph 1001.9mb 50f -
3:30pm 25 30 mph 1001.7mb 50f 43f
3:24pm 20 24 mph 1001.8mb 50f 44f
3:18pm 18 33 mph 1001.8mb 50f 44f
3:12pm 24 29 mph 1001.7mb 50f 44f
3:06pm 26 32 mph 1001.8mb 50f 44f
3:00pm 23 32 mph 1001.9mb 50f 44f
2:54pm 24 33 mph 1001.9mb 50f 44f
2:48pm 23 31 mph - 50f 44f
2:42pm 24 37 mph - 50f 44f
2:36pm 24 30 mph - 50f 44f
2:30pm 25 30 mph 1001.8mb 50f 44f
2:24pm 23 31 mph 1001.9mb 50f 43f
2:18pm 21 31 mph 1002mb 50f 44f
2:12pm 20 36 mph 1002.1mb 50f 44f
2:06pm 23 36 mph 1002.1mb 50f 44f
2:00pm 29 38 mph 1002mb 51f 43f
1:54pm 23 34 mph 1002.1mb 51f 45f
1:48pm 28 43 mph 1001.5mb 51f 48f
1:42pm 36 44 mph 1001mb 51f 49f
1:30pm 22 31 mph 1000.8mb 51f 50f
1:24pm 22 26 mph 1000.4mb 51f 50f
1:18pm 24 29 mph 1000.6mb - -
1:12pm 24 29 mph 1000.6mb 51f 50f
1:06pm 25 34 mph 1000.7mb 51f 50f
1:00pm 24 32 mph 1000.7mb 51f 50f
12:54pm 24 32 mph 1000.7mb 51f 50f
12:48pm 29 36 mph 1000.8mb 51f -
12:42pm 23 30 mph 1001mb 51f 50f
12:36pm 22 31 mph 1001.2mb 51f 50f
12:30pm 23 30 mph 1001.2mb 51f 50f
12:24pm 25 33 mph 1001.5mb 51f 50f
12:18pm 25 32 mph 1001.6mb 51f 50f
12:12pm 26 32 mph 1001.6mb 51f 50f
12:06pm 26 31 mph 1001.5mb 51f 49f
12:00pm 26 30 mph 1001.7mb 51f 49f
11:54am 28 34 mph 1001.8mb 51f 49f
11:48am 25 31 mph 1001.8mb 51f 49f
11:42am 28 36 mph 1001.9mb 51f 49f
11:36am 28 33 mph 1002.1mb 51f 49f
11:30am 26 34 mph 1001.9mb 51f 49f
11:24am 26 32 mph 1001.9mb 51f 49f
11:12am 28 37 mph 1002.2mb 51f 49f
11:06am 29 37 mph 1001.8mb 51f 49f
11:00am 30 38 mph 1001.9mb 51f 49f
10:48am 29 37 mph 1002.2mb 51f 49f
10:42am 25 37 mph 1002.2mb 51f 49f
10:36am 26 36 mph 1002.1mb 51f 49f
10:30am 28 33 mph 1002.2mb 51f 49f
10:24am 28 36 mph 1002.3mb 51f 48f
10:18am 30 37 mph 1002mb - -
10:12am 29 38 mph 1002mb 51f 49f
10:06am 28 33 mph 1002.1mb 51f 48f
10:00am 25 36 mph 1002.2mb 51f 49f
9:48am 24 31 mph 1002.1mb 51f -
9:42am 28 33 mph 1001.8mb 51f 49f
9:36am 28 32 mph 1001.7mb 51f 49f
9:30am 28 32 mph 1001.6mb 51f 48f
9:24am 28 33 mph 1001.5mb 51f 48f
9:18am 23 33 mph 1001.7mb 51f 48f
9:12am 26 32 mph 1001.6mb 51f 48f
9:06am 24 31 mph 1001.8mb 51f 48f
9:00am 24 31 mph 1001.8mb 51f 48f
8:54am 26 30 mph 1001.6mb 51f 48f
8:48am 24 30 mph 1001.8mb 51f -
8:42am 25 31 mph 1001.6mb 51f 48f
8:36am 24 31 mph 1001.5mb 51f 48f
8:30am 22 28 mph 1001.5mb 51f 48f
8:24am 20 23 mph 1001.3mb 51f 48f
8:18am 20 24 mph 1001.3mb 51f -
8:12am 22 24 mph 1001.2mb 51f 48f
8:06am 21 25 mph 1001.3mb 51f 48f
8:00am 22 25 mph 1001.2mb 51f 48f
7:54am 22 24 mph 1001.2mb 51f 48f
7:48am 22 25 mph - - -
7:42am 22 25 mph 1001mb - 48f
7:36am 22 24 mph 1000.9mb - 48f
7:30am 22 29 mph 1000.8mb 51f 48f
7:24am 22 26 mph 1000.8mb 51f 48f
7:18am 20 24 mph 1000.9mb 51f -
7:12am 21 25 mph 1000.8mb 51f 48f
7:06am 21 25 mph 1000.7mb 51f 48f
7:00am 20 24 mph 1000.6mb 51f 48f
6:54am 22 25 mph 1000.5mb 51f 48f
6:42am 23 26 mph 1000.3mb 51f 48f
6:36am 22 28 mph 1000.2mb 51f 48f
6:30am 22 25 mph 1000.1mb 51f 48f
6:24am 20 23 mph 1000.3mb 51f 47f
6:18am 18 26 mph 1000.3mb 51f -
6:12am 20 23 mph 1000.2mb 51f 50f
6:06am 17 23 mph 1000.2mb 51f 49f
5:54am 15 22 mph 1000.1mb 51f 49f
5:48am 13 21 mph - 51f -
5:36am 13 22 mph - 51f 49f
5:24am 20 26 mph 999.8mb 51f 48f
5:18am 21 25 mph 999.5mb 51f 48f
5:12am 20 28 mph 999.6mb 51f 48f
5:00am 22 28 mph 999.4mb 51f 47f
4:54am 20 24 mph 999.4mb 51f 47f
4:48am 21 24 mph 999.4mb 51f 46f
4:42am 20 28 mph 999.5mb 51f 46f
4:36am 23 29 mph 999.4mb 51f 46f
4:24am 26 32 mph 998.9mb 51f 46f
4:18am 22 29 mph 998.9mb 51f 46f
4:12am 20 25 mph 998.8mb 51f 46f
4:06am 18 26 mph 998.9mb 51f 46f
4:00am 20 29 mph 998.8mb 51f 46f
3:54am 24 28 mph 998.5mb 51f 46f
3:48am 23 32 mph 998.5mb 51f -
3:42am 26 38 mph 998.2mb 51f 47f
3:36am 28 39 mph 997.8mb 51f 47f
3:30am 29 36 mph 997.8mb 51f 47f
3:24am 25 31 mph 997.8mb 51f 47f
3:18am 29 33 mph 997.9mb 50f -
3:12am 24 31 mph 997.8mb 50f 47f
3:06am 24 31 mph 997.9mb 50f 47f
3:00am 24 30 mph 998.1mb 51f 47f
2:54am 23 30 mph 998.2mb 51f 47f
2:48am 24 34 mph 998.4mb 51f -
2:42am 30 44 mph 998.5mb 50f 48f
2:30am 29 37 mph 998mb 51f 48f
2:24am 29 36 mph 997.9mb 50f 48f
2:18am 28 39 mph 997.9mb - -
2:12am 32 41 mph 998.2mb 51f 48f
2:06am 36 56 mph 998.4mb 51f 45f
2:00am 43 57 mph 997.9mb 51f 47f
1:54am 45 56 mph 997.5mb 51f 47f
1:48am 34 40 mph 997.1mb 51f -
1:42am 26 36 mph 996.7mb 51f 49f
1:36am 29 33 mph 996.3mb 51f 49f
1:30am 26 32 mph 996.2mb 51f 50f
1:24am 28 33 mph 996mb 51f 50f
1:18am 28 36 mph 995.6mb 51f -
1:12am 28 37 mph 995.6mb 51f 51f
1:06am 25 34 mph 995.5mb 51f 51f
1:00am 24 33 mph 995.4mb 51f 51f
12:54am 29 44 mph 995.4mb 51f 52f
12:48am 31 44 mph - - -
12:42am 29 38 mph 995.3mb 51f 52f
12:36am 30 45 mph 995.1mb 51f 52f
12:30am 29 36 mph 995mb 51f 52f
12:24am 31 36 mph 994.8mb 51f 52f
12:18am 29 36 mph 994.7mb 51f -
12:12am 24 31 mph 994.7mb 51f 51f
12:00am 25 32 mph 995.2mb 51f 51f
Sat 01/21 11:54pm 30 36 mph 995.4mb 51f 52f
11:48pm 23 28 mph 995.5mb - -
11:42pm 18 22 mph 995.3mb 51f 51f
11:36pm 20 34 mph 995.2mb 51f 51f
11:30pm 25 34 mph 995.5mb 51f 51f
11:24pm 28 38 mph 995.7mb 51f 52f
11:18pm 26 34 mph 995.8mb 51f 52f
11:06pm 30 38 mph 996mb 51f 52f
11:00pm 26 34 mph 995.8mb 51f 53f
10:54pm 26 32 mph 995.6mb 51f 53f
10:48pm 21 28 mph 995.7mb 51f -
10:42pm 24 30 mph 995.7mb 51f -
10:36pm 24 33 mph 995.9mb 51f -
10:30pm 24 32 mph 996mb 51f 53f
10:24pm 24 34 mph 995.9mb 51f 53f
10:18pm 23 30 mph 996mb 51f -
10:12pm 23 28 mph 996mb 51f 53f
10:06pm 20 25 mph 996.1mb 51f 53f
10:00pm 21 26 mph 995.7mb 51f 53f
9:54pm 23 29 mph 996mb 51f 53f
9:48pm 21 25 mph 996.2mb 51f -
9:42pm 20 28 mph 996.3mb 51f 52f
9:36pm 21 28 mph 996.4mb 51f 52f
9:30pm 22 29 mph 996.8mb 51f 53f
9:24pm 22 28 mph 997.2mb 51f 52f
9:18pm 15 21 mph 997.5mb 51f -
9:12pm 9 14 mph 997.2mb 51f 51f
9:06pm 9 17 mph 997.2mb 51f 51f
9:00pm 15 18 mph 997.7mb 51f 51f
8:48pm 14 21 mph 998.4mb 51f 51f
8:42pm 20 28 mph 998.5mb 51f 51f
8:36pm 26 36 mph 998.7mb 51f 52f
8:30pm 22 30 mph 999.1mb 51f 51f
8:24pm 22 30 mph 999.4mb 51f 51f
8:18pm 17 30 mph 999.8mb 51f 51f
8:12pm 21 29 mph 1000mb 51f 51f
8:06pm 17 23 mph 1000.5mb 51f 51f
7:54pm 22 29 mph 1000.9mb 51f 51f
7:48pm 24 31 mph 1000.8mb 51f 51f
7:36pm 23 28 mph 1000.8mb 51f 51f
7:30pm 22 28 mph 1000.9mb 51f 51f
7:24pm 24 30 mph 1001mb 51f 51f
7:18pm 26 30 mph 1001mb 51f 51f
7:12pm 20 24 mph 1001mb 51f 51f
7:06pm 21 26 mph 1001.1mb 51f 51f
7:00pm 20 26 mph 1001mb 51f 52f
6:54pm 22 30 mph 1000.9mb 51f 52f
6:48pm 23 31 mph 1001.2mb 51f -
6:42pm 21 26 mph 1001.3mb 51f 51f
6:36pm 21 24 mph 1001.3mb 51f 51f
6:30pm 22 30 mph 1001.3mb 51f 51f
6:24pm 24 32 mph 1001.4mb 51f 52f
6:18pm 22 28 mph 1001.6mb 51f 51f
6:06pm 17 28 mph 1001.8mb 51f 51f
6:00pm 18 25 mph 1001.9mb 51f 51f
5:54pm 22 26 mph 1002mb 51f 51f
5:48pm 21 25 mph 1002.2mb 51f 51f
5:42pm 22 28 mph 1002.3mb 51f 51f
5:36pm 20 25 mph 1002.4mb 51f 51f
5:30pm 22 25 mph 1002.6mb 51f 51f
5:24pm 20 25 mph 1002.7mb 51f 51f
5:18pm 17 22 mph 1002.7mb 51f -
5:12pm 16 26 mph 1002.8mb 51f 50f
5:06pm 20 29 mph 1002.9mb 51f 51f
5:00pm 21 25 mph 1002.8mb 51f 51f
4:54pm 20 26 mph 1003.2mb 51f 51f
4:48pm 20 23 mph 1003.4mb 51f -
4:42pm 14 20 mph 1003.4mb 51f 50f
4:36pm 14 16 mph 1003.5mb 51f 50f
4:30pm 13 17 mph 1003.6mb 51f 50f
4:24pm 14 15 mph 1003.7mb 51f 50f
4:18pm 11 14 mph 1003.8mb 51f 49f
4:12pm 11 17 mph 1003.8mb 51f 49f
4:06pm 17 21 mph 1003.8mb 51f 49f
4:00pm 16 22 mph 1004mb 51f 49f
3:54pm 17 25 mph 1004.1mb 51f 48f
3:48pm 22 28 mph 1004.4mb 51f -
3:42pm 18 25 mph 1004.6mb 51f -
3:36pm 22 30 mph 1004.7mb 51f -
3:30pm 25 32 mph 1004.7mb 51f 49f
3:24pm 20 28 mph 1004.4mb 51f 49f
3:18pm 22 30 mph 1004.4mb 51f -
3:12pm 23 32 mph 1004.5mb 51f 49f
3:06pm 20 22 mph 1004.5mb 51f 50f
3:00pm 17 24 mph 1004.4mb 51f 50f
2:54pm 20 26 mph 1004.4mb 51f 50f
2:48pm 20 25 mph 1004.4mb 51f -
2:42pm 18 24 mph 1004.3mb 51f -
2:36pm 21 28 mph 1004.2mb 51f -
2:30pm 24 29 mph 1004.1mb 51f 49f
2:24pm 22 29 mph 1004.1mb 51f 49f
2:18pm 22 28 mph 1004.1mb 51f 49f
2:12pm 23 29 mph 1003.9mb 51f 50f
2:06pm 16 23 mph 1003.9mb 51f 51f
2:00pm 17 24 mph 1004mb 51f 51f
1:54pm 20 25 mph 1004mb 51f 51f
1:48pm 15 20 mph 1004.1mb 51f -
1:42pm 13 20 mph 1004.2mb 51f 50f
1:36pm 15 20 mph 1004.3mb 51f 50f
1:30pm 14 20 mph 1004.3mb 51f 50f
1:24pm 16 22 mph 1004.4mb 51f 50f
1:18pm 18 24 mph 1004.3mb - -
1:12pm 13 20 mph 1004.2mb 51f 51f
1:06pm 15 20 mph 1004.1mb 51f 51f
1:00pm 16 21 mph 1004.1mb 51f 50f
12:54pm 17 23 mph 1004mb 51f 50f
12:48pm 17 22 mph 1004mb 51f 50f
12:36pm 13 18 mph 1003.8mb 51f 51f
12:30pm 11 23 mph 1003.8mb 51f 51f
12:24pm 10 16 mph 1003.8mb 51f 51f
12:18pm 10 16 mph 1003.7mb 51f -
12:12pm 11 15 mph 1003.7mb 50f 50f
12:06pm 9 20 mph 1003.6mb 51f 48f
12:00pm 15 25 mph 1003.5mb 51f 48f
11:54am 10 23 mph 1003.6mb 51f 50f
11:42am 14 18 mph 1003.6mb 50f 50f
11:36am 14 17 mph 1003.5mb 50f 50f
11:24am 17 20 mph 1003.3mb 50f 50f
11:18am 13 17 mph 1003.3mb 50f -
11:12am 11 16 mph 1003.3mb 50f 51f
11:00am 14 20 mph 1003.1mb 50f 50f
10:54am 10 14 mph 1003mb 50f 50f
10:48am 8 17 mph - 50f -
10:42am 15 20 mph - 50f 49f
10:36am 14 22 mph - 50f 48f
10:30am 21 25 mph 1002.4mb 50f 48f
10:24am 15 21 mph 1002.2mb 50f 51f
10:18am 16 23 mph 1002.2mb - -
10:12am 15 22 mph 1002.1mb 50f 51f
10:06am 11 15 mph 1001.8mb 50f 50f
10:00am 13 17 mph 1001.7mb 50f 50f
9:54am 15 18 mph 1001.5mb 50f 49f
9:48am 17 23 mph 1001.3mb - -
9:42am 18 28 mph 1001mb 50f 49f
9:36am 20 29 mph 1000.9mb 50f 50f
9:30am 9 13 mph 1000.7mb 50f 50f
9:24am 7 15 mph 1000.7mb 50f 49f
9:18am 13 17 mph 1000.5mb 50f -
9:12am 16 28 mph 1000.3mb 50f 49f
9:06am 13 16 mph 1000.1mb 50f 51f
9:00am 14 20 mph 999.9mb 50f 50f
8:54am 15 22 mph 999.8mb 50f 51f
8:48am 14 20 mph 999.7mb 50f -
8:42am 15 21 mph 999.6mb 50f 51f
8:36am 17 22 mph 999.4mb 51f 51f
8:30am 21 24 mph 999.3mb 50f 50f
8:24am 11 23 mph 999.2mb 50f 50f
8:18am 15 21 mph 999mb - -
8:12am 15 20 mph 999mb 51f 50f
8:06am 11 23 mph 998.8mb 51f 50f
8:00am 14 17 mph 998.6mb 51f 50f
7:54am 11 21 mph 998.4mb 51f 49f
7:48am 18 25 mph - - -
7:42am 18 25 mph 998mb 51f 50f
7:36am 20 29 mph 997.8mb 51f 49f
7:30am 23 33 mph 997.8mb 51f 49f
7:24am 18 23 mph 997.6mb 51f 50f
7:18am 13 18 mph 997.4mb 51f -
7:12am 11 18 mph 997.3mb 51f 50f
7:06am 15 20 mph 997.4mb 51f 49f
7:00am 14 21 mph 997.3mb 51f 48f
6:54am 21 28 mph 997.2mb 51f 48f
6:42am 20 25 mph 996.8mb 51f 50f
6:36am 21 26 mph 996.7mb 51f 49f
6:30am 16 21 mph 996.5mb 51f 50f
6:24am 20 22 mph 996.4mb 51f 50f
6:18am 16 21 mph 996.3mb 51f -
6:12am 16 22 mph 996.1mb 51f 49f
6:06am 18 30 mph 995.8mb 51f 48f
6:00am 22 28 mph 995.6mb 51f 48f
5:54am 13 24 mph 995.5mb 51f 49f
5:48am 11 21 mph 995.2mb - -
5:42am 16 26 mph 995.2mb 50f 49f
5:36am 13 25 mph 995.2mb 50f 48f
5:30am 17 26 mph 995.1mb 51f 50f
5:24am 18 28 mph 994.9mb 51f 50f
5:18am 20 25 mph 994.9mb 51f -
5:12am 22 25 mph 994.9mb 51f 49f
5:06am 22 29 mph 994.8mb 51f 49f
5:00am 20 28 mph 994.7mb 50f 49f
4:54am 20 28 mph 994.6mb 50f 49f
4:48am 21 25 mph 994.5mb 50f -
4:42am 17 23 mph 994.5mb 50f 49f
4:30am 17 23 mph 994.4mb 50f 49f
4:24am 18 24 mph 994.3mb 50f 48f
4:18am 20 28 mph 994.2mb 50f 48f
4:12am 23 29 mph 994.2mb 50f 49f
4:06am 20 26 mph 994.1mb 50f 49f
4:00am 22 28 mph 994.1mb 50f 49f
3:54am 13 24 mph 994.1mb 50f 49f
3:48am 16 26 mph 994mb 50f -
3:42am 21 25 mph 993.9mb 50f 50f
3:36am 16 23 mph 993.8mb 50f 49f
3:30am 17 25 mph 993.9mb 51f 50f
3:24am 20 23 mph 993.8mb 51f 50f
3:18am 18 23 mph 993.9mb - -
3:12am 16 21 mph 993.8mb 51f 50f
3:00am 13 22 mph 993.7mb 51f 49f
2:54am 20 24 mph 993.6mb 50f 50f
2:48am 16 23 mph 993.5mb - -
2:42am 13 20 mph 993.4mb 50f 50f
2:36am 14 24 mph 993.3mb 50f 49f
2:24am 22 28 mph 992.8mb 50f 48f
2:18am 26 29 mph 992.7mb 51f -
2:12am 22 26 mph 992.4mb 50f 48f
2:06am 20 25 mph 992.5mb 50f 47f
2:00am 20 28 mph 992.5mb 50f 47f
1:54am 24 31 mph 992.2mb 50f 47f
1:48am 24 29 mph 992mb 50f -
1:42am 28 32 mph 991.8mb 50f 47f
1:36am 23 36 mph 991.7mb 51f 47f
1:30am 25 34 mph 991.6mb 50f 47f
1:24am 24 31 mph 991.6mb 50f 47f
1:18am 24 32 mph 991.3mb 50f 47f
1:12am 29 36 mph 991.3mb 50f 47f
1:06am 25 36 mph 991.3mb 50f 47f
1:00am 24 32 mph 991.2mb 50f 48f
12:48am 26 36 mph 991.2mb 50f -
12:42am 25 31 mph 990.9mb 50f 47f
12:36am 25 31 mph 990.9mb 50f 47f
12:30am 28 37 mph 990.8mb 50f 47f
12:24am 25 31 mph 990.5mb 50f 48f
12:18am 26 33 mph - - -
12:12am 25 31 mph 990.4mb 51f 47f
12:00am 22 32 mph 990.7mb 51f 46f
Fri 01/20 11:54pm 14 16 mph 991mb 51f 45f
11:48pm 15 21 mph 991.1mb 51f -